Time;durP1;ratioP1;P1;durP2;ratioP2;P2;SDS_P1;SDS_P2;PMS_P1;PMS_P2;Temp;Humidity;BMP_temperature;BMP_pressure;BME280_temperature;BME280_humidity;BME280_pressure;Samples;Min_cycle;Max_cycle;Signal;HPM_P1;HPM_P2
2023/04/05 00:02:09;;;;;;;15.63;9.43;;;9.30;99.90;;;;;;4936589;29;20032;-89
2023/04/05 00:04:37;;;;;;;20.27;9.95;;;8.90;99.90;;;;;;4965415;29;20293;-90
2023/04/05 00:07:07;;;;;;;17.27;9.98;;;8.70;99.90;;;;;;4960605;28;20035;-91
2023/04/05 00:09:32;;;;;;;13.60;9.88;;;8.10;99.90;;;;;;4953658;28;20100;-90
2023/04/05 00:11:58;;;;;;;13.90;9.55;;;8.20;99.90;;;;;;4957675;28;20035;-91
2023/04/05 00:14:23;;;;;;;14.55;10.20;;;8.80;99.90;;;;;;4953176;28;20491;-91
2023/04/05 00:16:51;;;;;;;16.15;9.15;;;8.70;99.90;;;;;;4953188;28;20113;-91
2023/04/05 00:19:17;;;;;;;12.02;9.68;;;8.20;99.90;;;;;;4954409;29;20023;-90
2023/04/05 00:21:42;;;;;;;11.55;9.50;;;8.20;99.90;;;;;;4954830;28;20034;-89
2023/04/05 00:24:14;;;;;;;10.90;8.85;;;8.80;99.90;;;;;;4954554;28;20499;-93
2023/04/05 00:26:48;;;;;;;13.30;9.23;;;9.60;99.90;;;;;;4955294;29;20372;-90
2023/04/05 00:29:14;;;;;;;11.98;9.57;;;8.60;99.90;;;;;;4955581;28;20027;-90
2023/04/05 00:31:40;;;;;;;13.88;9.85;;;8.90;99.90;;;;;;4954684;28;20081;-90
2023/04/05 00:34:13;;;;;;;18.17;10.85;;;8.60;99.90;;;;;;4954904;28;20055;-90
2023/04/05 00:36:39;;;;;;;14.98;9.43;;;8.50;99.90;;;;;;4964360;29;20027;-90
2023/04/05 00:39:04;;;;;;;9.68;8.65;;;8.40;99.90;;;;;;4957399;28;20503;-89
2023/04/05 00:41:30;;;;;;;13.43;9.90;;;8.80;99.90;;;;;;4954826;28;20023;-91
2023/04/05 00:43:55;;;;;;;11.07;8.82;;;8.40;99.90;;;;;;4955615;28;20086;-90
2023/04/05 00:46:21;;;;;;;14.02;9.25;;;8.70;99.90;;;;;;4954661;28;20039;-90
2023/04/05 00:48:47;;;;;;;13.75;9.07;;;9.00;99.90;;;;;;4955225;28;20023;-90
2023/04/05 00:51:13;;;;;;;10.65;8.52;;;8.50;99.90;;;;;;4955331;28;20035;-90
2023/04/05 00:53:43;;;;;;;11.45;8.90;;;8.70;99.90;;;;;;4954711;28;20023;-89
2023/04/05 00:56:12;;;;;;;9.80;8.20;;;8.80;99.90;;;;;;4954786;28;20027;-89
2023/04/05 00:58:41;;;;;;;16.60;9.23;;;8.90;99.90;;;;;;4953930;28;20035;-90
2023/04/05 01:01:18;;;;;;;13.88;8.48;;;8.90;99.90;;;;;;4954195;28;20032;-90
2023/04/05 01:03:48;;;;;;;15.95;9.35;;;7.70;99.90;;;;;;4954507;28;20047;-90
2023/04/05 01:06:14;;;;;;;13.60;9.20;;;8.60;99.90;;;;;;4953309;28;20090;-90
2023/04/05 01:09:02;;;;;;;12.13;8.52;;;8.50;99.90;;;;;;4954611;28;20031;-89
2023/04/05 01:11:41;;;;;;;11.82;8.73;;;8.20;99.90;;;;;;4957768;28;20031;-89
2023/04/05 01:14:06;;;;;;;13.27;8.68;;;8.20;99.90;;;;;;4954511;29;20106;-89
2023/04/05 01:16:32;;;;;;;13.15;9.07;;;9.20;99.90;;;;;;4954695;28;20540;-89
2023/04/05 01:18:58;;;;;;;12.18;8.68;;;7.10;99.90;;;;;;4954639;28;20110;-90
2023/04/05 01:21:38;;;;;;;13.20;8.50;;;8.00;99.90;;;;;;4954392;29;20028;-90
2023/04/05 01:24:17;;;;;;;9.02;8.10;;;8.40;99.90;;;;;;4954406;28;20027;-90
2023/04/05 01:27:02;;;;;;;11.80;8.05;;;8.20;99.90;;;;;;4953587;29;20063;-90
2023/04/05 01:29:45;;;;;;;9.30;7.95;;;8.10;99.90;;;;;;4953356;29;20027;-89
2023/04/05 01:32:19;;;;;;;10.50;8.20;;;8.10;99.90;;;;;;4954631;29;20043;-90
2023/04/05 01:35:03;;;;;;;9.98;7.93;;;8.10;99.90;;;;;;4953744;28;20031;-91
2023/04/05 01:37:31;;;;;;;14.00;8.77;;;8.10;99.90;;;;;;4957385;29;20070;-90
2023/04/05 01:39:58;;;;;;;12.55;8.38;;;7.80;99.90;;;;;;4957688;28;20023;-90
2023/04/05 01:42:25;;;;;;;14.07;7.90;;;8.30;99.90;;;;;;4956554;28;20028;-89
2023/04/05 01:44:52;;;;;;;11.07;7.80;;;8.60;99.90;;;;;;4957528;28;20569;-89
2023/04/05 01:47:19;;;;;;;11.68;8.43;;;8.70;99.90;;;;;;4949644;29;20049;-90
2023/04/05 01:49:44;;;;;;;12.65;8.82;;;8.50;99.90;;;;;;4956898;28;20051;-90
2023/04/05 01:52:10;;;;;;;12.05;7.90;;;7.60;99.90;;;;;;4957632;28;20028;-90
2023/04/05 01:54:35;;;;;;;9.98;8.15;;;8.50;99.90;;;;;;4958043;28;20062;-91
2023/04/05 01:57:01;;;;;;;11.32;8.90;;;8.70;99.90;;;;;;4963936;28;20054;-89
2023/04/05 01:59:27;;;;;;;13.77;7.47;;;7.90;99.90;;;;;;4971147;28;20547;-90
2023/04/05 02:02:01;;;;;;;11.60;7.97;;;8.80;99.90;;;;;;4958404;28;20094;-89
2023/04/05 02:04:27;;;;;;;9.40;8.35;;;8.20;99.90;;;;;;4956338;28;20057;-90
2023/04/05 02:06:52;;;;;;;11.70;8.15;;;7.90;99.90;;;;;;4957038;28;20110;-90
2023/04/05 02:09:18;;;;;;;11.98;8.20;;;9.00;99.90;;;;;;4957520;28;20033;-90
2023/04/05 02:11:44;;;;;;;11.10;8.75;;;7.90;99.90;;;;;;4958573;28;20138;-89
2023/04/05 02:14:09;;;;;;;10.90;7.40;;;9.30;99.90;;;;;;4957950;28;20034;-89
2023/04/05 02:16:35;;;;;;;13.23;8.35;;;8.40;99.90;;;;;;4956468;28;20024;-90
2023/04/05 02:19:01;;;;;;;10.05;8.00;;;8.30;99.90;;;;;;4957889;28;20033;-89
2023/04/05 02:21:27;;;;;;;11.65;9.40;;;8.50;99.90;;;;;;4957490;28;20019;-89
2023/04/05 02:24:04;;;;;;;13.88;8.85;;;7.80;99.90;;;;;;4956941;28;20030;-90
2023/04/05 02:26:30;;;;;;;11.18;7.78;;;7.80;99.90;;;;;;4957237;28;20083;-90
2023/04/05 02:28:56;;;;;;;11.80;8.85;;;8.20;99.90;;;;;;4957741;28;20024;-90
2023/04/05 02:31:21;;;;;;;9.75;7.97;;;8.20;99.90;;;;;;4956870;29;20517;-90
2023/04/05 02:33:48;;;;;;;11.48;8.35;;;8.30;99.90;;;;;;4957152;28;20353;-89
2023/04/05 02:36:13;;;;;;;11.32;8.20;;;8.60;99.90;;;;;;4957105;28;20035;-88
2023/04/05 02:38:39;;;;;;;10.60;8.68;;;8.30;99.90;;;;;;4956400;28;20452;-90
2023/04/05 02:41:15;;;;;;;9.88;8.20;;;9.00;99.90;;;;;;4957246;28;20050;-91
2023/04/05 02:43:40;;;;;;;11.98;8.07;;;8.20;99.90;;;;;;4957146;29;20073;-90
2023/04/05 02:46:09;;;;;;;12.50;8.45;;;8.60;99.90;;;;;;4956076;28;20435;-89
2023/04/05 02:48:34;;;;;;;9.73;8.02;;;8.00;99.90;;;;;;4956813;28;20027;-90
2023/04/05 02:51:00;;;;;;;11.93;8.38;;;8.50;99.90;;;;;;4957049;28;20084;-89
2023/04/05 02:53:26;;;;;;;13.07;8.18;;;8.70;99.90;;;;;;4955761;28;20023;-90
2023/04/05 02:55:56;;;;;;;13.18;8.85;;;7.70;99.90;;;;;;4956748;28;20113;-90
2023/04/05 02:58:24;;;;;;;10.90;8.32;;;7.70;99.90;;;;;;4956977;28;20106;-90
2023/04/05 03:00:53;;;;;;;11.10;8.70;;;7.70;99.90;;;;;;4955747;28;20035;-90
2023/04/05 03:03:19;;;;;;;9.30;7.50;;;8.50;99.90;;;;;;4956312;28;20047;-89
2023/04/05 03:05:47;;;;;;;14.23;8.07;;;7.70;99.90;;;;;;4955688;28;20063;-90
2023/04/05 03:08:17;;;;;;;10.23;7.65;;;8.10;99.90;;;;;;4953401;29;20043;-90
2023/04/05 03:10:44;;;;;;;11.40;7.95;;;7.30;99.90;;;;;;4957191;29;20066;-89
2023/04/05 03:13:15;;;;;;;9.23;7.38;;;8.30;99.90;;;;;;4957685;28;20525;-90
2023/04/05 03:15:41;;;;;;;11.80;8.13;;;6.90;99.90;;;;;;4956241;28;20090;-90
2023/04/05 03:18:07;;;;;;;11.15;8.43;;;8.00;99.90;;;;;;4956752;28;20023;-90
2023/04/05 03:20:35;;;;;;;13.10;8.43;;;8.30;99.90;;;;;;4955977;28;20110;-90
2023/04/05 03:23:02;;;;;;;19.63;8.15;;;7.80;99.90;;;;;;4961706;28;20027;-90
2023/04/05 03:25:27;;;;;;;9.75;8.02;;;7.20;99.90;;;;;;4961725;29;20031;-90
2023/04/05 03:27:54;;;;;;;11.45;7.88;;;7.90;99.90;;;;;;4959396;28;20031;-89
2023/04/05 03:30:19;;;;;;;12.32;8.60;;;7.40;99.90;;;;;;4958970;28;20101;-90
2023/04/05 03:33:03;;;;;;;12.80;8.02;;;7.20;99.90;;;;;;4957004;28;20476;-89
2023/04/05 03:35:29;;;;;;;16.45;7.60;;;7.30;99.90;;;;;;4954860;29;20383;-90
2023/04/05 03:37:56;;;;;;;15.65;8.40;;;8.10;99.90;;;;;;4955099;28;20027;-90
2023/04/05 03:40:22;;;;;;;9.55;7.13;;;7.80;99.90;;;;;;4956082;28;20102;-90
2023/04/05 03:42:54;;;;;;;11.13;7.97;;;7.40;99.90;;;;;;4955276;28;20064;-90
2023/04/05 03:45:20;;;;;;;12.00;7.70;;;8.00;99.90;;;;;;4955740;28;20039;-90
2023/04/05 03:47:54;;;;;;;10.88;7.82;;;8.20;99.90;;;;;;4955426;28;20023;-90
2023/04/05 03:50:20;;;;;;;11.48;8.40;;;7.20;99.90;;;;;;4956308;28;20027;-90
2023/04/05 03:52:46;;;;;;;12.30;8.23;;;7.00;99.90;;;;;;4971068;28;20035;-90
2023/04/05 03:55:15;;;;;;;9.85;8.13;;;7.40;99.90;;;;;;4956762;28;20574;-89
2023/04/05 03:57:44;;;;;;;14.93;8.25;;;7.20;99.90;;;;;;4954795;28;20387;-89
2023/04/05 04:00:36;;;;;;;24.95;8.55;;;7.30;99.90;;;;;;4955917;28;20423;-90
2023/04/05 04:03:03;;;;;;;19.17;8.52;;;7.20;99.90;;;;;;4950944;28;20046;-90
2023/04/05 04:05:37;;;;;;;13.40;8.35;;;8.10;99.90;;;;;;4955166;28;20476;-91
2023/04/05 04:08:05;;;;;;;11.73;7.35;;;7.90;99.90;;;;;;4955662;29;20042;-90
2023/04/05 04:10:35;;;;;;;11.10;7.50;;;7.30;99.90;;;;;;4955377;28;20039;-90
2023/04/05 04:13:00;;;;;;;15.02;8.70;;;6.70;99.90;;;;;;4958785;28;20023;-90
2023/04/05 04:15:26;;;;;;;11.05;7.35;;;7.30;99.90;;;;;;4955768;28;20456;-90
2023/04/05 04:17:52;;;;;;;12.55;7.80;;;8.10;99.90;;;;;;4954622;28;20075;-91
2023/04/05 04:20:23;;;;;;;10.10;7.70;;;7.70;99.90;;;;;;4955766;28;20046;-91
2023/04/05 04:22:49;;;;;;;12.13;7.90;;;7.40;99.90;;;;;;4956041;28;20028;-91
2023/04/05 04:25:17;;;;;;;13.00;8.20;;;7.60;99.90;;;;;;4954725;28;20038;-89
2023/04/05 04:27:43;;;;;;;11.45;8.07;;;7.90;99.90;;;;;;4955734;28;20118;-90
2023/04/05 04:30:11;;;;;;;12.18;8.90;;;8.20;99.90;;;;;;4954909;28;20019;-89
2023/04/05 04:32:50;;;;;;;13.23;8.65;;;7.40;99.90;;;;;;4955102;28;20034;-90
2023/04/05 04:35:17;;;;;;;13.63;9.23;;;8.00;99.90;;;;;;4955479;29;20027;-90
2023/04/05 04:37:46;;;;;;;14.50;8.88;;;8.00;99.90;;;;;;4954663;28;20040;-90
2023/04/05 04:40:18;;;;;;;12.38;8.15;;;8.40;99.90;;;;;;4955498;28;20027;-90
2023/04/05 04:42:47;;;;;;;12.35;8.88;;;7.40;99.90;;;;;;4953968;29;20027;-90
2023/04/05 04:45:22;;;;;;;12.80;8.68;;;8.10;99.90;;;;;;4965755;28;20039;-91
2023/04/05 04:47:51;;;;;;;13.88;7.90;;;8.00;99.90;;;;;;4955094;28;20359;-90
2023/04/05 04:50:18;;;;;;;11.00;8.40;;;8.00;99.90;;;;;;4954616;29;20067;-90
2023/04/05 04:52:45;;;;;;;14.82;8.68;;;7.90;99.90;;;;;;4954429;28;20034;-90
2023/04/05 04:55:13;;;;;;;16.88;8.68;;;7.90;99.90;;;;;;4954368;28;20023;-90
2023/04/05 04:57:55;;;;;;;10.80;8.35;;;7.20;99.90;;;;;;4954821;28;20023;-89
2023/04/05 05:00:30;;;;;;;11.52;8.07;;;7.20;99.90;;;;;;4954672;28;20035;-90
2023/04/05 05:03:13;;;;;;;13.75;8.90;;;7.00;99.90;;;;;;4954472;28;20495;-90
2023/04/05 05:05:57;;;;;;;12.82;8.45;;;7.00;99.90;;;;;;4954080;29;20471;-89
2023/04/05 05:08:38;;;;;;;11.23;7.90;;;8.60;99.90;;;;;;4954357;28;20155;-89
2023/04/05 05:11:24;;;;;;;12.90;8.00;;;6.70;99.90;;;;;;4958743;28;20034;-90
2023/04/05 05:14:09;;;;;;;14.77;8.50;;;7.70;99.90;;;;;;4959820;28;20020;-91
2023/04/05 05:16:57;;;;;;;12.75;8.23;;;7.20;99.90;;;;;;4958257;28;20031;-90
2023/04/05 05:19:23;;;;;;;11.88;8.93;;;7.10;99.90;;;;;;4868236;28;20482;-90
2023/04/05 05:21:52;;;;;;;10.77;8.30;;;7.80;99.90;;;;;;4958898;29;20074;-91
2023/04/05 05:24:23;;;;;;;9.50;7.95;;;7.20;99.90;;;;;;4960781;28;20023;-91
2023/04/05 05:26:49;;;;;;;13.57;8.75;;;7.50;99.90;;;;;;4957113;28;20039;-89
2023/04/05 05:29:33;;;;;;;12.70;8.80;;;7.90;99.90;;;;;;4939667;29;20031;-91
2023/04/05 05:31:59;;;;;;;14.50;9.00;;;6.60;99.90;;;;;;4939168;29;20091;-93
2023/04/05 05:34:47;;;;;;;11.50;8.90;;;8.00;99.90;;;;;;4938957;29;20027;-92
2023/04/05 05:37:13;;;;;;;12.13;8.80;;;7.40;99.90;;;;;;4949146;29;20035;-89
2023/04/05 05:39:47;;;;;;;17.58;9.93;;;7.50;99.90;;;;;;4958698;28;20078;-89
2023/04/05 05:42:34;;;;;;;14.27;9.93;;;6.40;99.90;;;;;;4961336;29;20130;-95
2023/04/05 05:45:18;;;;;;;15.23;9.68;;;7.40;99.90;;;;;;4963059;28;20035;-93
2023/04/05 05:47:44;;;;;;;10.88;8.55;;;7.00;99.90;;;;;;4943451;29;20043;-91
2023/04/05 05:50:20;;;;;;;14.05;9.20;;;7.20;99.90;;;;;;4938771;29;20087;-92
2023/04/05 05:53:04;;;;;;;15.40;9.32;;;6.90;99.90;;;;;;4936952;29;20027;-92
2023/04/05 05:55:36;;;;;;;14.98;9.95;;;5.70;99.90;;;;;;4937635;29;20027;-91
2023/04/05 05:58:02;;;;;;;18.80;9.25;;;7.50;99.90;;;;;;4936188;29;20106;-91
2023/04/05 06:00:46;;;;;;;13.65;9.35;;;7.70;99.90;;;;;;4937987;29;20487;-90
2023/04/05 06:03:12;;;;;;;10.90;8.50;;;7.00;99.90;;;;;;5000830;23;20107;-91
2023/04/05 06:06:20;;;;;;;21.20;9.15;;;7.60;99.90;;;;;;4936375;29;20036;-89
2023/04/05 06:08:46;;;;;;;14.73;8.13;;;7.10;99.90;;;;;;4936212;29;20127;-91
2023/04/05 06:11:24;;;;;;;18.20;9.30;;;7.90;99.90;;;;;;4939125;29;20066;-91
2023/04/05 06:14:01;;;;;;;14.23;8.38;;;6.10;99.90;;;;;;4943855;29;20547;-91
2023/04/05 06:16:48;;;;;;;10.25;8.02;;;7.10;99.90;;;;;;4937580;29;20436;-90
2023/04/05 06:19:25;;;;;;;10.23;8.05;;;7.60;99.90;;;;;;4938101;29;20039;-91
2023/04/05 06:21:51;;;;;;;11.60;7.57;;;7.60;99.90;;;;;;4937785;29;20031;-93
2023/04/05 06:24:37;;;;;;;9.43;8.10;;;7.30;99.90;;;;;;4935614;29;20024;-91
2023/04/05 06:27:18;;;;;;;10.57;7.95;;;7.70;99.90;;;;;;4933572;29;20095;-92
2023/04/05 06:29:43;;;;;;;;;;;7.50;99.90;;;;;;4937369;29;20024;-92
2023/04/05 06:32:23;;;;;;;13.73;8.48;;;7.70;99.90;;;;;;4939142;29;19917;-91
2023/04/05 06:35:04;;;;;;;11.13;8.10;;;7.80;99.90;;;;;;4938647;29;20107;-91
2023/04/05 06:37:30;;;;;;;11.70;8.35;;;7.30;99.90;;;;;;4937470;29;20038;-91
2023/04/05 06:40:08;;;;;;;16.25;8.55;;;7.50;99.90;;;;;;4938417;29;20024;-92
2023/04/05 06:42:49;;;;;;;10.90;7.70;;;7.20;99.90;;;;;;4938391;29;20043;-91
2023/04/05 06:45:15;;;;;;;8.50;7.45;;;7.50;99.90;;;;;;4937786;29;20042;-94
2023/04/05 06:47:58;;;;;;;10.68;7.88;;;8.20;99.90;;;;;;4938578;29;20028;-91
2023/04/05 06:51:03;;;;;;;16.33;9.05;;;7.80;99.90;;;;;;4938619;29;20559;-92
2023/04/05 06:53:40;;;;;;;12.00;8.55;;;7.30;99.90;;;;;;4915803;29;20046;-93
2023/04/05 06:56:20;;;;;;;13.40;8.77;;;7.90;99.90;;;;;;4938611;29;20074;-92
2023/04/05 06:58:46;;;;;;;16.90;8.93;;;7.90;99.90;;;;;;5022158;23;20046;-92
2023/04/05 07:01:28;;;;;;;11.00;8.73;;;7.40;99.90;;;;;;4920277;29;20051;-93
2023/04/05 07:03:53;;;;;;;14.50;8.15;;;7.20;99.90;;;;;;4918779;29;20474;-91
2023/04/05 07:06:19;;;;;;;10.05;7.60;;;7.40;99.90;;;;;;4918392;29;20036;-90
2023/04/05 07:08:57;;;;;;;11.18;7.40;;;8.30;99.90;;;;;;4919051;29;20024;-92
2023/04/05 07:11:40;;;;;;;13.45;9.05;;;7.90;99.90;;;;;;4919714;29;20360;-92
2023/04/05 07:14:06;;;;;;;15.13;8.48;;;8.20;99.90;;;;;;4919588;29;20024;-91
2023/04/05 07:16:47;;;;;;;9.23;8.10;;;8.20;99.90;;;;;;4919702;29;20024;-92
2023/04/05 07:19:26;;;;;;;14.23;8.57;;;7.50;99.90;;;;;;4919342;29;20036;-92
2023/04/05 07:21:52;;;;;;;11.90;8.45;;;7.60;99.90;;;;;;4922527;29;20024;-90
2023/04/05 07:24:37;;;;;;;10.95;7.57;;;8.40;99.90;;;;;;4920546;29;20031;-93
2023/04/05 07:27:24;;;;;;;15.60;7.93;;;8.40;99.90;;;;;;4918657;29;20032;-90
2023/04/05 07:30:09;;;;;;;16.25;7.60;;;7.80;99.90;;;;;;4933534;29;20012;-89
2023/04/05 07:32:37;;;;;;;17.83;9.30;;;7.90;99.90;;;;;;4942275;23;20062;-90
2023/04/05 07:35:18;;;;;;;13.02;7.90;;;8.40;99.90;;;;;;4957036;28;20035;-90
2023/04/05 07:38:02;;;;;;;12.73;7.63;;;8.50;99.90;;;;;;4957208;28;20026;-91
2023/04/05 07:41:19;;;;;;;11.43;8.10;;;8.70;99.90;;;;;;4961154;28;20130;-94
2023/04/05 07:44:03;;;;;;;12.30;7.32;;;8.10;99.90;;;;;;4958489;28;20091;-93
2023/04/05 07:46:38;;;;;;;14.70;8.18;;;8.60;99.80;;;;;;4957876;28;20494;-94
2023/04/05 07:49:03;;;;;;;11.07;7.10;;;8.70;99.90;;;;;;4958123;28;20023;-93
2023/04/05 07:54:58;;;;;;;11.80;7.22;;;7.70;99.90;;;;;;5114280;23;20051;-93
2023/04/05 08:01:54;;;;;;;9.10;6.75;;;7.90;99.90;;;;;;5109594;27;20437;-86
2023/04/05 08:04:19;;;;;;;12.20;7.00;;;8.00;99.90;;;;;;5110339;28;20036;-89
2023/04/05 08:06:46;;;;;;;10.50;6.53;;;8.00;99.90;;;;;;5110031;28;20016;-80
2023/04/05 08:09:11;;;;;;;31.23;7.85;;;8.00;99.80;;;;;;5109537;28;20459;-81
2023/04/05 08:11:37;;;;;;;225.75;17.80;;;8.10;99.90;;;;;;5124816;28;20119;-85
2023/04/05 08:14:03;;;;;;;19.30;8.77;;;8.30;99.90;;;;;;5129690;27;20102;-80
2023/04/05 08:16:29;;;;;;;17.33;7.97;;;8.30;99.90;;;;;;5109432;28;20024;-89
2023/04/05 08:18:54;;;;;;;15.82;6.47;;;8.40;99.90;;;;;;5111068;28;20505;-85
2023/04/05 08:21:21;;;;;;;10.23;6.43;;;8.40;99.90;;;;;;5110304;28;20032;-86
2023/04/05 08:23:46;;;;;;;14.00;6.32;;;8.50;99.90;;;;;;5106962;28;20375;-87
2023/04/05 08:26:12;;;;;;;13.40;6.50;;;8.60;99.90;;;;;;5093898;28;20029;-87
2023/04/05 08:28:56;;;;;;;8.70;5.97;;;8.60;99.90;;;;;;5104537;28;20024;-87
2023/04/05 08:31:22;;;;;;;13.05;6.18;;;9.30;99.50;;;;;;5107920;28;20043;-87
2023/04/05 08:34:05;;;;;;;7.63;6.22;;;8.60;98.00;;;;;;5103214;28;20479;-83
2023/04/05 08:36:49;;;;;;;8.82;5.43;;;8.60;98.50;;;;;;5102404;28;20015;-83
2023/04/05 08:39:15;;;;;;;8.63;5.75;;;9.10;97.70;;;;;;5105912;22;20044;-85
2023/04/05 08:42:02;;;;;;;5.53;4.78;;;8.50;97.10;;;;;;5088913;28;20032;-85
2023/04/05 08:44:29;;;;;;;8.98;5.18;;;8.50;96.00;;;;;;5085678;28;20032;-85
2023/04/05 08:46:57;;;;;;;10.35;6.40;;;8.90;96.40;;;;;;5082827;28;20017;-85
2023/04/05 08:49:22;;;;;;;11.75;5.95;;;7.80;95.80;;;;;;5088380;28;20024;-84
2023/04/05 08:51:48;;;;;;;11.15;6.32;;;8.70;96.60;;;;;;5086034;28;20615;-85
2023/04/05 08:54:14;;;;;;;10.57;5.82;;;8.70;96.80;;;;;;5086732;28;20119;-85
2023/04/05 08:56:46;;;;;;;7.32;5.85;;;8.80;95.60;;;;;;5086246;28;20107;-87
2023/04/05 08:59:15;;;;;;;12.57;5.65;;;9.60;95.60;;;;;;5086334;28;20104;-87
2023/04/05 09:01:47;;;;;;;8.18;5.55;;;9.60;96.40;;;;;;5090798;28;20035;-86
2023/04/05 09:04:38;;;;;;;7.18;5.68;;;8.90;96.40;;;;;;5084303;28;20054;-87
2023/04/05 09:07:05;;;;;;;;;;;8.90;96.30;;;;;;5084888;28;20025;-86
2023/04/05 09:09:45;;;;;;;8.32;5.68;;;9.60;95.60;;;;;;5084788;28;19911;-89
2023/04/05 09:12:11;;;;;;;7.82;6.20;;;8.90;95.80;;;;;;5075300;28;20383;-89
2023/04/05 09:14:37;;;;;;;10.93;6.47;;;9.00;96.50;;;;;;5070331;28;20115;-86
2023/04/05 09:17:06;;;;;;;8.63;6.07;;;9.00;96.20;;;;;;5070790;28;20411;-85
2023/04/05 09:19:31;;;;;;;8.70;5.90;;;9.30;96.50;;;;;;5071328;28;20028;-85
2023/04/05 09:22:02;;;;;;;7.80;5.40;;;9.10;96.00;;;;;;5071967;28;20029;-86
2023/04/05 09:24:47;;;;;;;9.52;6.50;;;9.20;95.80;;;;;;5067659;28;20031;-86
2023/04/05 09:27:15;;;;;;;10.18;6.28;;;9.20;96.00;;;;;;5071840;28;20025;-86
2023/04/05 09:29:52;;;;;;;9.23;6.10;;;9.20;95.70;;;;;;5072293;28;20096;-87
2023/04/05 09:32:20;;;;;;;11.43;6.07;;;9.40;95.60;;;;;;5073400;28;20372;-87
2023/04/05 09:34:46;;;;;;;11.38;6.47;;;10.00;95.60;;;;;;5072036;28;20029;-87
2023/04/05 09:37:34;;;;;;;8.23;5.82;;;9.30;95.70;;;;;;5072877;28;20032;-87
2023/04/05 09:43:36;;;;;;;7.88;5.45;;;9.30;95.60;;;;;;5068703;28;20094;-86
2023/04/05 09:46:02;;;;;;;6.60;5.57;;;9.70;95.00;;;;;;5073667;28;20040;-88
2023/04/05 09:48:48;;;;;;;7.57;5.47;;;9.20;95.70;;;;;;5073078;28;20112;-89
2023/04/05 09:51:15;;;;;;;10.70;5.38;;;9.50;96.00;;;;;;5073880;28;20025;-89
2023/04/05 09:54:01;;;;;;;10.98;6.03;;;10.90;95.40;;;;;;5072028;28;20119;-88
2023/04/05 09:56:30;;;;;;;8.27;6.38;;;10.70;94.80;;;;;;5073196;28;20025;-88
2023/04/05 09:59:05;;;;;;;11.38;7.18;;;9.30;94.80;;;;;;5072573;28;20032;-88
2023/04/05 10:01:43;;;;;;;6.82;6.13;;;9.50;94.10;;;;;;5070221;28;20041;-88
2023/04/05 10:04:09;;;;;;;9.77;5.53;;;10.00;94.30;;;;;;5072556;28;20066;-89
2023/04/05 10:06:50;;;;;;;11.43;6.55;;;10.00;94.80;;;;;;5072708;28;20070;-89
2023/04/05 10:09:34;;;;;;;10.27;6.35;;;10.40;94.80;;;;;;5071956;28;20025;-88
2023/04/05 10:12:22;;;;;;;19.65;6.55;;;10.40;95.20;;;;;;5070920;28;20031;-88
2023/04/05 10:14:55;;;;;;;9.82;6.68;;;9.90;95.00;;;;;;5077882;28;20040;-88
2023/04/05 10:17:48;;;;;;;11.10;6.65;;;10.20;95.00;;;;;;5072997;28;20429;-88
2023/04/05 10:20:29;;;;;;;10.80;6.60;;;9.20;94.50;;;;;;5088001;22;20048;-87
2023/04/05 10:23:37;;;;;;;10.65;6.97;;;9.70;94.90;;;;;;5086931;28;20468;-90
2023/04/05 10:26:59;;;;;;;8.80;5.72;;;9.40;94.30;;;;;;5091025;28;20036;-88
2023/04/05 10:29:41;;;;;;;11.85;6.15;;;9.80;94.60;;;;;;5093090;28;20472;-87
2023/04/05 10:32:44;;;;;;;8.73;5.95;;;11.10;94.70;;;;;;5091785;28;20490;-89
2023/04/05 10:38:18;;;;;;;10.65;7.00;;;9.90;94.40;;;;;;5128632;22;20044;-88
2023/04/05 10:40:48;;;;;;;7.65;6.30;;;9.80;94.40;;;;;;5073379;28;20058;-88
2023/04/05 10:43:34;;;;;;;12.45;6.35;;;9.90;94.60;;;;;;5073204;28;20450;-88
2023/04/05 10:46:02;;;;;;;10.90;5.68;;;10.00;94.20;;;;;;5073810;28;20078;-87
2023/04/05 10:49:12;;;;;;;9.93;6.47;;;10.00;94.50;;;;;;5162716;22;20120;-88
2023/04/05 10:51:39;;;;;;;7.85;6.15;;;9.50;94.30;;;;;;5097497;28;20046;-87
2023/04/05 10:54:18;;;;;;;11.80;7.07;;;10.00;94.20;;;;;;5114343;28;20028;-88
2023/04/05 10:56:44;;;;;;;11.75;6.30;;;10.90;94.00;;;;;;5113896;28;20031;-89
2023/04/05 10:59:20;;;;;;;10.95;6.40;;;10.90;94.20;;;;;;5110478;27;20020;-87
2023/04/05 11:02:04;;;;;;;9.65;7.15;;;10.90;94.30;;;;;;5102553;28;20039;-88
2023/04/05 11:04:35;;;;;;;13.27;7.43;;;10.00;94.30;;;;;;5112846;27;20026;-90
2023/04/05 11:07:17;;;;;;;9.27;6.90;;;9.00;94.50;;;;;;5112793;28;20450;-88
2023/04/05 11:10:05;;;;;;;9.23;6.68;;;11.40;94.90;;;;;;5111468;28;20020;-89
2023/04/05 11:12:45;;;;;;;13.50;7.47;;;10.20;94.90;;;;;;5105423;28;20491;-88
2023/04/05 11:15:26;;;;;;;7.95;7.07;;;10.80;94.40;;;;;;5109588;28;20023;-88
2023/04/05 11:21:30;;;;;;;8.75;6.97;;;10.30;94.40;;;;;;5110279;28;20081;-89
2023/04/05 11:24:14;;;;;;;8.27;6.75;;;11.00;94.20;;;;;;5107522;27;20120;-88
2023/04/05 11:26:56;;;;;;;11.18;7.43;;;11.00;93.90;;;;;;5107871;27;20526;-89
2023/04/05 11:30:08;;;;;;;7.90;6.82;;;11.00;94.30;;;;;;5113357;27;20047;-89
2023/04/05 11:32:38;;;;;;;8.75;6.53;;;10.40;94.30;;;;;;5111157;27;20015;-87
2023/04/05 11:35:17;;;;;;;11.27;6.45;;;11.00;93.80;;;;;;5112485;28;20019;-90
2023/04/05 11:38:00;;;;;;;9.50;6.78;;;10.40;94.00;;;;;;5125617;28;20023;-89
2023/04/05 11:40:39;;;;;;;15.40;6.95;;;11.30;93.70;;;;;;5112738;28;20028;-89
2023/04/05 11:43:28;;;;;;;9.20;7.07;;;11.00;93.40;;;;;;5114047;28;20020;-90
2023/04/05 11:46:15;;;;;;;9.25;6.95;;;10.40;93.40;;;;;;5113309;28;20080;-89
2023/04/05 11:48:59;;;;;;;9.68;7.07;;;11.80;93.90;;;;;;5103134;28;20074;-90
2023/04/05 11:51:32;;;;;;;14.20;7.25;;;11.20;93.70;;;;;;5091602;28;20024;-91
2023/04/05 11:54:06;;;;;;;9.82;7.18;;;10.60;93.70;;;;;;5090360;28;20028;-88
2023/04/05 11:56:32;;;;;;;13.43;7.03;;;11.30;93.80;;;;;;5089676;28;20024;-88
2023/04/05 11:59:16;;;;;;;18.65;7.25;;;11.30;93.50;;;;;;5089310;28;20046;-87
2023/04/05 12:01:45;;;;;;;15.68;8.23;;;10.60;93.70;;;;;;5090140;28;20028;-89
2023/04/05 12:04:29;;;;;;;15.25;7.35;;;10.50;93.70;;;;;;5090903;28;20022;-88
2023/04/05 12:07:18;;;;;;;9.95;6.88;;;11.20;94.10;;;;;;5091761;28;20032;-89
2023/04/05 12:10:09;;;;;;;10.30;7.40;;;11.30;93.90;;;;;;5090770;28;20072;-88
2023/04/05 12:15:23;;;;;;;9.25;6.75;;;10.80;94.00;;;;;;5092545;28;20031;-89
2023/04/05 12:17:54;;;;;;;15.75;7.53;;;10.80;93.70;;;;;;5092880;28;20028;-89
2023/04/05 12:20:40;;;;;;;9.30;6.80;;;11.50;93.70;;;;;;5092433;28;20089;-89
2023/04/05 12:23:07;;;;;;;8.00;6.70;;;11.70;93.60;;;;;;5091887;28;20480;-87
2023/04/05 12:25:37;;;;;;;10.18;8.00;;;11.00;93.70;;;;;;5092357;28;20046;-88
2023/04/05 12:28:05;;;;;;;10.45;6.70;;;11.00;93.80;;;;;;5093110;28;20028;-90
2023/04/05 12:30:53;;;;;;;16.23;8.07;;;11.10;93.90;;;;;;5092352;28;20081;-89
2023/04/05 12:33:41;;;;;;;9.95;6.40;;;11.10;93.50;;;;;;5093020;28;20103;-89
2023/04/05 12:36:07;;;;;;;14.30;7.60;;;11.70;93.80;;;;;;5092280;28;20031;-89
2023/04/05 12:38:37;;;;;;;10.45;7.25;;;11.20;93.40;;;;;;5092252;28;20028;-90
2023/04/05 12:41:28;;;;;;;7.28;6.40;;;11.90;93.20;;;;;;5092775;28;20028;-88
2023/04/05 12:44:38;;;;;;;9.82;7.05;;;11.20;92.20;;;;;;5089678;22;20052;-88
2023/04/05 12:47:16;;;;;;;13.83;6.87;;;11.30;92.30;;;;;;5073445;28;20028;-89
2023/04/05 12:49:45;;;;;;;8.05;6.95;;;12.20;92.70;;;;;;5075271;28;20024;-89
2023/04/05 12:52:19;;;;;;;8.35;6.63;;;11.90;92.50;;;;;;5076575;28;20025;-88
2023/04/05 12:54:53;;;;;;;8.18;6.28;;;11.90;92.30;;;;;;5076010;28;20029;-88
2023/04/05 12:57:48;;;;;;;8.02;6.63;;;12.00;91.70;;;;;;5075888;28;20033;-88
2023/04/05 13:00:29;;;;;;;8.93;7.10;;;10.70;91.20;;;;;;5077121;28;20038;-90
2023/04/05 13:03:04;;;;;;;11.73;6.75;;;11.80;91.20;;;;;;5082001;28;20040;-88
2023/04/05 13:05:30;;;;;;;7.45;6.75;;;11.70;91.00;;;;;;5075580;28;20492;-88
2023/04/05 13:07:57;;;;;;;7.88;7.03;;;11.10;91.10;;;;;;5164252;22;20060;-90
2023/04/05 13:10:40;;;;;;;13.18;7.40;;;11.60;91.60;;;;;;5116569;28;20121;-88
2023/04/05 13:13:22;;;;;;;8.27;6.88;;;11.80;92.00;;;;;;5116620;28;20462;-89
2023/04/05 13:16:03;;;;;;;10.00;7.53;;;11.40;92.30;;;;;;5116325;28;20024;-87
2023/04/05 13:18:28;;;;;;;;;;;11.20;92.50;;;;;;5116255;28;20027;-88
2023/04/05 13:21:12;;;;;;;11.77;9.45;;;11.30;92.30;;;;;;5115945;28;19920;-88
2023/04/05 13:23:57;;;;;;;11.73;9.20;;;12.00;92.60;;;;;;5116041;28;20076;-88
2023/04/05 13:26:22;;;;;;;10.77;8.30;;;12.10;92.50;;;;;;5115111;28;20073;-88
2023/04/05 13:28:57;;;;;;;9.65;8.63;;;11.20;91.90;;;;;;5115462;28;20031;-87
2023/04/05 13:31:22;;;;;;;9.48;8.23;;;11.60;91.80;;;;;;5115711;28;20015;-91
2023/04/05 13:33:51;;;;;;;11.20;8.07;;;11.40;91.90;;;;;;5115329;28;20063;-87
2023/04/05 13:36:17;;;;;;;8.65;7.75;;;12.10;92.30;;;;;;5115979;28;20020;-87
2023/04/05 13:39:00;;;;;;;12.20;7.97;;;12.20;92.50;;;;;;5115001;28;20016;-90
2023/04/05 13:41:27;;;;;;;9.55;8.23;;;12.10;91.90;;;;;;5115829;28;20028;-89
2023/04/05 13:44:14;;;;;;;9.30;8.10;;;12.30;92.20;;;;;;5115647;28;20019;-88